sensor_id;sensor_type;location;lat;lon;timestamp;pressure;altitude;pressure_sealevel;temperature;humidity
13695;BME280;6919;52.344;14.518;2023-06-26T00:01:55;100838.75;;;19.86;100.00
13695;BME280;6919;52.344;14.518;2023-06-26T00:04:25;100846.06;;;19.86;100.00
13695;BME280;6919;52.344;14.518;2023-06-26T00:06:54;100845.06;;;19.87;100.00
13695;BME280;6919;52.344;14.518;2023-06-26T00:09:22;100850.25;;;19.82;100.00
13695;BME280;6919;52.344;14.518;2023-06-26T00:11:51;100856.97;;;19.73;100.00
13695;BME280;6919;52.344;14.518;2023-06-26T00:14:19;100846.69;;;19.75;100.00
13695;BME280;6919;52.344;14.518;2023-06-26T00:16:48;100856.34;;;19.84;100.00
13695;BME280;6919;52.344;14.518;2023-06-26T00:19:17;100854.44;;;19.71;100.00
13695;BME280;6919;52.344;14.518;2023-06-26T00:21:47;100858.44;;;19.69;100.00
13695;BME280;6919;52.344;14.518;2023-06-26T00:24:17;100852.75;;;19.64;100.00
13695;BME280;6919;52.344;14.518;2023-06-26T00:26:47;100848.97;;;19.58;100.00
13695;BME280;6919;52.344;14.518;2023-06-26T00:29:16;100856.09;;;19.59;100.00
13695;BME280;6919;52.344;14.518;2023-06-26T00:31:45;100849.59;;;19.54;100.00
13695;BME280;6919;52.344;14.518;2023-06-26T00:34:15;100855.69;;;19.56;100.00
13695;BME280;6919;52.344;14.518;2023-06-26T00:36:43;100851.69;;;19.52;100.00
13695;BME280;6919;52.344;14.518;2023-06-26T00:39:13;100856.91;;;19.47;100.00
13695;BME280;6919;52.344;14.518;2023-06-26T00:41:42;100855.44;;;19.44;100.00
13695;BME280;6919;52.344;14.518;2023-06-26T00:44:10;100854.56;;;19.37;100.00
13695;BME280;6919;52.344;14.518;2023-06-26T00:46:39;100848.72;;;19.40;100.00
13695;BME280;6919;52.344;14.518;2023-06-26T00:49:07;100849.31;;;19.29;100.00
13695;BME280;6919;52.344;14.518;2023-06-26T00:51:36;100852.91;;;19.30;100.00
13695;BME280;6919;52.344;14.518;2023-06-26T00:54:05;100841.59;;;19.33;100.00
13695;BME280;6919;52.344;14.518;2023-06-26T00:56:36;100839.91;;;19.38;100.00
13695;BME280;6919;52.344;14.518;2023-06-26T00:59:05;100836.78;;;19.35;100.00
13695;BME280;6919;52.344;14.518;2023-06-26T01:01:33;100840.72;;;19.26;100.00
13695;BME280;6919;52.344;14.518;2023-06-26T01:04:02;100840.94;;;19.24;100.00
13695;BME280;6919;52.344;14.518;2023-06-26T01:06:31;100836.38;;;19.38;100.00
13695;BME280;6919;52.344;14.518;2023-06-26T01:09:03;100830.91;;;19.25;100.00
13695;BME280;6919;52.344;14.518;2023-06-26T01:11:31;100830.41;;;19.15;100.00
13695;BME280;6919;52.344;14.518;2023-06-26T01:14:02;100827.69;;;19.15;100.00
13695;BME280;6919;52.344;14.518;2023-06-26T01:16:31;100829.13;;;19.04;100.00
13695;BME280;6919;52.344;14.518;2023-06-26T01:19:00;100823.31;;;19.20;100.00
13695;BME280;6919;52.344;14.518;2023-06-26T01:21:29;100825.63;;;19.10;100.00
13695;BME280;6919;52.344;14.518;2023-06-26T01:24:16;100823.25;;;19.01;100.00
13695;BME280;6919;52.344;14.518;2023-06-26T01:26:51;100827.81;;;18.94;100.00
13695;BME280;6919;52.344;14.518;2023-06-26T01:29:21;100824.94;;;19.02;100.00
13695;BME280;6919;52.344;14.518;2023-06-26T01:31:50;100818.00;;;18.93;100.00
13695;BME280;6919;52.344;14.518;2023-06-26T01:34:19;100816.94;;;18.94;100.00
13695;BME280;6919;52.344;14.518;2023-06-26T01:36:48;100817.41;;;18.97;100.00
13695;BME280;6919;52.344;14.518;2023-06-26T01:39:19;100818.00;;;18.99;100.00
13695;BME280;6919;52.344;14.518;2023-06-26T01:41:49;100813.38;;;18.87;100.00
13695;BME280;6919;52.344;14.518;2023-06-26T01:44:28;100817.19;;;18.99;100.00
13695;BME280;6919;52.344;14.518;2023-06-26T01:47:01;100810.53;;;19.08;100.00
13695;BME280;6919;52.344;14.518;2023-06-26T01:49:43;100800.78;;;19.26;100.00
13695;BME280;6919;52.344;14.518;2023-06-26T01:52:22;100798.44;;;19.17;100.00
13695;BME280;6919;52.344;14.518;2023-06-26T01:55:01;100795.19;;;19.47;100.00
13695;BME280;6919;52.344;14.518;2023-06-26T01:57:34;100780.16;;;19.58;100.00
13695;BME280;6919;52.344;14.518;2023-06-26T02:00:05;100767.16;;;19.53;100.00
13695;BME280;6919;52.344;14.518;2023-06-26T02:02:37;100786.19;;;19.60;100.00
13695;BME280;6919;52.344;14.518;2023-06-26T02:05:06;100766.31;;;19.72;100.00
13695;BME280;6919;52.344;14.518;2023-06-26T02:07:35;100773.03;;;19.70;100.00
13695;BME280;6919;52.344;14.518;2023-06-26T02:10:04;100765.28;;;19.80;100.00
13695;BME280;6919;52.344;14.518;2023-06-26T02:12:35;100765.47;;;19.98;100.00
13695;BME280;6919;52.344;14.518;2023-06-26T02:15:05;100763.81;;;19.97;100.00
13695;BME280;6919;52.344;14.518;2023-06-26T02:17:33;100763.81;;;19.97;100.00
13695;BME280;6919;52.344;14.518;2023-06-26T02:20:02;100763.56;;;19.98;100.00
13695;BME280;6919;52.344;14.518;2023-06-26T02:22:32;100758.56;;;19.89;100.00
13695;BME280;6919;52.344;14.518;2023-06-26T02:25:00;100765.06;;;19.94;100.00
13695;BME280;6919;52.344;14.518;2023-06-26T02:27:28;100755.84;;;19.95;100.00
13695;BME280;6919;52.344;14.518;2023-06-26T02:29:58;100760.06;;;19.91;100.00
13695;BME280;6919;52.344;14.518;2023-06-26T02:32:27;100760.47;;;19.88;100.00
13695;BME280;6919;52.344;14.518;2023-06-26T02:34:55;100761.31;;;19.95;100.00
13695;BME280;6919;52.344;14.518;2023-06-26T02:37:24;100762.75;;;19.98;100.00
13695;BME280;6919;52.344;14.518;2023-06-26T02:39:52;100764.63;;;19.97;100.00
13695;BME280;6919;52.344;14.518;2023-06-26T02:42:21;100754.16;;;20.07;100.00
13695;BME280;6919;52.344;14.518;2023-06-26T02:44:49;100763.16;;;20.08;100.00
13695;BME280;6919;52.344;14.518;2023-06-26T02:47:20;100753.75;;;20.24;100.00
13695;BME280;6919;52.344;14.518;2023-06-26T02:49:49;100748.69;;;20.27;100.00
13695;BME280;6919;52.344;14.518;2023-06-26T02:52:17;100750.38;;;20.28;100.00
13695;BME280;6919;52.344;14.518;2023-06-26T02:54:47;100748.69;;;20.27;100.00
13695;BME280;6919;52.344;14.518;2023-06-26T02:57:15;100751.22;;;20.29;100.00
13695;BME280;6919;52.344;14.518;2023-06-26T02:59:44;100744.72;;;20.30;100.00
13695;BME280;6919;52.344;14.518;2023-06-26T03:02:12;100744.06;;;20.34;100.00
13695;BME280;6919;52.344;14.518;2023-06-26T03:04:42;100751.41;;;20.34;100.00
13695;BME280;6919;52.344;14.518;2023-06-26T03:07:11;100753.31;;;20.33;100.00
13695;BME280;6919;52.344;14.518;2023-06-26T03:09:39;100747.84;;;20.33;100.00
13695;BME280;6919;52.344;14.518;2023-06-26T03:12:08;100749.09;;;20.37;100.00
13695;BME280;6919;52.344;14.518;2023-06-26T03:14:37;100751.81;;;20.37;100.00
13695;BME280;6919;52.344;14.518;2023-06-26T03:17:05;100759.78;;;20.39;100.00
13695;BME280;6919;52.344;14.518;2023-06-26T03:19:34;100750.75;;;20.38;100.00
13695;BME280;6919;52.344;14.518;2023-06-26T03:22:04;100750.72;;;20.51;100.00
13695;BME280;6919;52.344;14.518;2023-06-26T03:24:33;100739.88;;;20.38;100.00
13695;BME280;6919;52.344;14.518;2023-06-26T03:27:02;100746.16;;;20.39;100.00
13695;BME280;6919;52.344;14.518;2023-06-26T03:29:30;100747.78;;;20.46;100.00
13695;BME280;6919;52.344;14.518;2023-06-26T03:31:58;100745.72;;;20.48;100.00
13695;BME280;6919;52.344;14.518;2023-06-26T03:34:27;100743.97;;;20.60;100.00
13695;BME280;6919;52.344;14.518;2023-06-26T03:36:55;100746.34;;;20.50;100.00
13695;BME280;6919;52.344;14.518;2023-06-26T03:39:25;100743.50;;;20.76;100.00
13695;BME280;6919;52.344;14.518;2023-06-26T03:41:54;100737.63;;;20.73;100.00
13695;BME280;6919;52.344;14.518;2023-06-26T03:44:23;100736.81;;;20.66;100.00
13695;BME280;6919;52.344;14.518;2023-06-26T03:46:52;100740.19;;;20.68;100.00
13695;BME280;6919;52.344;14.518;2023-06-26T03:49:20;100730.94;;;20.75;100.00
13695;BME280;6919;52.344;14.518;2023-06-26T03:51:49;100730.72;;;20.70;100.00
13695;BME280;6919;52.344;14.518;2023-06-26T03:54:18;100734.09;;;20.66;100.00
13695;BME280;6919;52.344;14.518;2023-06-26T03:56:47;100738.31;;;20.68;100.00
13695;BME280;6919;52.344;14.518;2023-06-26T03:59:16;100732.81;;;20.75;100.00
13695;BME280;6919;52.344;14.518;2023-06-26T04:01:45;100733.03;;;20.73;100.00
13695;BME280;6919;52.344;14.518;2023-06-26T04:04:13;100725.91;;;20.72;100.00
13695;BME280;6919;52.344;14.518;2023-06-26T04:06:42;100728.34;;;20.87;100.00
13695;BME280;6919;52.344;14.518;2023-06-26T04:09:11;100723.78;;;20.81;100.00
13695;BME280;6919;52.344;14.518;2023-06-26T04:11:39;100722.25;;;20.91;100.00
13695;BME280;6919;52.344;14.518;2023-06-26T04:14:09;100718.28;;;20.94;100.00
13695;BME280;6919;52.344;14.518;2023-06-26T04:16:37;100714.97;;;21.16;100.00
13695;BME280;6919;52.344;14.518;2023-06-26T04:19:06;100712.09;;;21.11;100.00
13695;BME280;6919;52.344;14.518;2023-06-26T04:21:35;100706.16;;;21.21;100.00
13695;BME280;6919;52.344;14.518;2023-06-26T04:24:04;100711.22;;;21.17;100.00
13695;BME280;6919;52.344;14.518;2023-06-26T04:26:33;100711.34;;;21.29;100.00
13695;BME280;6919;52.344;14.518;2023-06-26T04:29:01;100704.88;;;21.23;100.00
13695;BME280;6919;52.344;14.518;2023-06-26T04:31:31;100711.56;;;21.27;100.00
13695;BME280;6919;52.344;14.518;2023-06-26T04:34:00;100708.72;;;21.40;100.00
13695;BME280;6919;52.344;14.518;2023-06-26T04:36:29;100704.47;;;21.51;100.00
13695;BME280;6919;52.344;14.518;2023-06-26T04:38:58;100697.09;;;21.51;100.00
13695;BME280;6919;52.344;14.518;2023-06-26T04:41:27;100699.31;;;21.61;100.00
13695;BME280;6919;52.344;14.518;2023-06-26T04:43:56;100703.22;;;21.71;100.00
13695;BME280;6919;52.344;14.518;2023-06-26T04:46:24;100699.38;;;21.79;100.00
13695;BME280;6919;52.344;14.518;2023-06-26T04:48:56;100702.31;;;22.02;100.00
13695;BME280;6919;52.344;14.518;2023-06-26T04:51:26;100692.63;;;22.06;100.00
13695;BME280;6919;52.344;14.518;2023-06-26T04:53:55;100688.53;;;22.33;100.00
13695;BME280;6919;52.344;14.518;2023-06-26T04:56:24;100692.25;;;22.38;100.00
13695;BME280;6919;52.344;14.518;2023-06-26T04:58:52;100685.88;;;22.44;100.00
13695;BME280;6919;52.344;14.518;2023-06-26T05:01:23;100681.19;;;22.81;100.00
13695;BME280;6919;52.344;14.518;2023-06-26T05:03:51;100675.72;;;23.11;100.00
13695;BME280;6919;52.344;14.518;2023-06-26T05:06:21;100679.81;;;22.90;100.00
13695;BME280;6919;52.344;14.518;2023-06-26T05:08:50;100678.44;;;23.11;100.00
13695;BME280;6919;52.344;14.518;2023-06-26T05:11:18;100678.19;;;23.01;100.00
13695;BME280;6919;52.344;14.518;2023-06-26T05:13:47;100684.31;;;22.84;100.00
13695;BME280;6919;52.344;14.518;2023-06-26T05:16:16;100669.00;;;23.25;100.00
13695;BME280;6919;52.344;14.518;2023-06-26T05:18:44;100669.25;;;23.35;100.00
13695;BME280;6919;52.344;14.518;2023-06-26T05:21:13;100671.66;;;23.54;100.00
13695;BME280;6919;52.344;14.518;2023-06-26T05:23:46;100674.78;;;23.58;100.00
13695;BME280;6919;52.344;14.518;2023-06-26T05:26:16;100673.31;;;23.55;100.00
13695;BME280;6919;52.344;14.518;2023-06-26T05:28:45;100670.94;;;23.47;100.00
13695;BME280;6919;52.344;14.518;2023-06-26T05:31:16;100666.94;;;23.73;100.00
13695;BME280;6919;52.344;14.518;2023-06-26T05:33:46;100664.63;;;23.47;100.00
13695;BME280;6919;52.344;14.518;2023-06-26T05:36:18;100660.22;;;23.46;100.00
13695;BME280;6919;52.344;14.518;2023-06-26T05:38:53;100662.75;;;23.59;100.00
13695;BME280;6919;52.344;14.518;2023-06-26T05:41:24;100655.13;;;23.61;100.00
13695;BME280;6919;52.344;14.518;2023-06-26T05:43:53;100660.50;;;23.67;100.00
13695;BME280;6919;52.344;14.518;2023-06-26T05:46:22;100655.47;;;23.87;100.00
13695;BME280;6919;52.344;14.518;2023-06-26T05:48:50;100658.69;;;23.61;100.00
13695;BME280;6919;52.344;14.518;2023-06-26T05:51:19;100654.31;;;23.60;100.00
13695;BME280;6919;52.344;14.518;2023-06-26T05:53:49;100656.09;;;23.55;100.00
13695;BME280;6919;52.344;14.518;2023-06-26T05:56:21;100651.91;;;23.87;100.00
13695;BME280;6919;52.344;14.518;2023-06-26T05:58:50;100659.53;;;23.50;100.00
13695;BME280;6919;52.344;14.518;2023-06-26T06:01:19;100658.91;;;23.25;100.00
13695;BME280;6919;52.344;14.518;2023-06-26T06:03:48;100663.19;;;23.33;100.00
13695;BME280;6919;52.344;14.518;2023-06-26T06:06:17;100672.84;;;23.47;100.00
13695;BME280;6919;52.344;14.518;2023-06-26T06:08:47;100660.50;;;23.67;100.00
13695;BME280;6919;52.344;14.518;2023-06-26T06:11:20;100658.09;;;24.17;100.00
13695;BME280;6919;52.344;14.518;2023-06-26T06:13:49;100655.06;;;24.41;100.00
13695;BME280;6919;52.344;14.518;2023-06-26T06:16:17;100652.63;;;24.68;100.00
13695;BME280;6919;52.344;14.518;2023-06-26T06:18:46;100651.63;;;24.34;100.00
13695;BME280;6919;52.344;14.518;2023-06-26T06:21:14;100650.41;;;24.42;100.00
13695;BME280;6919;52.344;14.518;2023-06-26T06:23:43;100647.03;;;24.63;100.00
13695;BME280;6919;52.344;14.518;2023-06-26T06:26:12;100645.56;;;25.00;100.00
13695;BME280;6919;52.344;14.518;2023-06-26T06:28:42;100645.75;;;25.10;100.00
13695;BME280;6919;52.344;14.518;2023-06-26T06:31:11;100644.28;;;25.35;100.00
13695;BME280;6919;52.344;14.518;2023-06-26T06:33:39;100635.69;;;25.65;100.00
13695;BME280;6919;52.344;14.518;2023-06-26T06:36:08;100635.94;;;25.97;100.00
13695;BME280;6919;52.344;14.518;2023-06-26T06:38:36;100639.03;;;26.05;100.00
13695;BME280;6919;52.344;14.518;2023-06-26T06:41:07;100638.94;;;26.38;100.00
13695;BME280;6919;52.344;14.518;2023-06-26T06:43:35;100636.44;;;26.37;100.00
13695;BME280;6919;52.344;14.518;2023-06-26T06:46:05;100634.72;;;26.52;100.00
13695;BME280;6919;52.344;14.518;2023-06-26T06:48:34;100640.66;;;26.87;100.00
13695;BME280;6919;52.344;14.518;2023-06-26T06:51:03;100633.19;;;26.88;100.00
13695;BME280;6919;52.344;14.518;2023-06-26T06:53:34;100628.94;;;27.02;100.00
13695;BME280;6919;52.344;14.518;2023-06-26T06:56:03;100626.44;;;27.27;100.00
13695;BME280;6919;52.344;14.518;2023-06-26T06:58:32;100625.94;;;27.66;100.00
13695;BME280;6919;52.344;14.518;2023-06-26T07:01:04;100633.50;;;27.44;100.00
13695;BME280;6919;52.344;14.518;2023-06-26T07:03:32;100630.03;;;27.27;100.00
13695;BME280;6919;52.344;14.518;2023-06-26T07:06:03;100621.53;;;27.34;100.00
13695;BME280;6919;52.344;14.518;2023-06-26T07:08:32;100621.59;;;27.39;97.50
13695;BME280;6919;52.344;14.518;2023-06-26T07:11:00;100623.59;;;27.48;100.00
13695;BME280;6919;52.344;14.518;2023-06-26T07:13:29;100630.47;;;27.46;100.00
13695;BME280;6919;52.344;14.518;2023-06-26T07:15:57;100621.19;;;27.57;96.91
13695;BME280;6919;52.344;14.518;2023-06-26T07:18:27;100622.56;;;27.54;91.39
13695;BME280;6919;52.344;14.518;2023-06-26T07:20:56;100626.72;;;27.62;93.29
13695;BME280;6919;52.344;14.518;2023-06-26T07:23:25;100626.84;;;27.77;93.18
13695;BME280;6919;52.344;14.518;2023-06-26T07:25:54;100618.09;;;27.85;94.28
13695;BME280;6919;52.344;14.518;2023-06-26T07:28:23;100628.34;;;27.94;95.68
13695;BME280;6919;52.344;14.518;2023-06-26T07:30:52;100622.88;;;28.61;92.03
13695;BME280;6919;52.344;14.518;2023-06-26T07:33:20;100621.78;;;28.67;86.16
13695;BME280;6919;52.344;14.518;2023-06-26T07:35:50;100623.13;;;28.50;87.16
13695;BME280;6919;52.344;14.518;2023-06-26T07:38:19;100616.78;;;27.97;83.25
13695;BME280;6919;52.344;14.518;2023-06-26T07:40:47;100614.69;;;28.15;78.83
13695;BME280;6919;52.344;14.518;2023-06-26T07:43:16;100610.28;;;28.19;77.14
13695;BME280;6919;52.344;14.518;2023-06-26T07:45:45;100609.97;;;28.15;75.29
13695;BME280;6919;52.344;14.518;2023-06-26T07:48:13;100614.69;;;28.20;72.96
13695;BME280;6919;52.344;14.518;2023-06-26T07:50:42;100612.31;;;27.86;84.64
13695;BME280;6919;52.344;14.518;2023-06-26T07:53:12;100610.34;;;28.34;83.30
13695;BME280;6919;52.344;14.518;2023-06-26T07:55:40;100614.13;;;27.76;81.74
13695;BME280;6919;52.344;14.518;2023-06-26T07:58:09;100604.41;;;28.05;79.02
13695;BME280;6919;52.344;14.518;2023-06-26T08:00:38;100607.22;;;28.15;77.97
13695;BME280;6919;52.344;14.518;2023-06-26T08:03:07;100603.44;;;28.31;77.40
13695;BME280;6919;52.344;14.518;2023-06-26T08:05:47;100601.06;;;28.50;72.96
13695;BME280;6919;52.344;14.518;2023-06-26T08:08:17;100605.34;;;28.26;71.38
13695;BME280;6919;52.344;14.518;2023-06-26T08:10:46;100603.00;;;27.56;77.47
13695;BME280;6919;52.344;14.518;2023-06-26T08:13:15;100604.25;;;27.12;78.20
13695;BME280;6919;52.344;14.518;2023-06-26T08:15:43;100603.72;;;27.41;77.17
13695;BME280;6919;52.344;14.518;2023-06-26T08:18:12;100597.03;;;27.32;84.08
13695;BME280;6919;52.344;14.518;2023-06-26T08:20:40;100599.56;;;27.75;77.53
13695;BME280;6919;52.344;14.518;2023-06-26T08:23:09;100594.72;;;27.97;75.46
13695;BME280;6919;52.344;14.518;2023-06-26T08:25:38;100596.97;;;28.00;70.61
13695;BME280;6919;52.344;14.518;2023-06-26T08:28:07;100595.97;;;28.22;67.91
13695;BME280;6919;52.344;14.518;2023-06-26T08:30:35;100589.88;;;28.20;71.33
13695;BME280;6919;52.344;14.518;2023-06-26T08:33:04;100588.91;;;28.56;74.73
13695;BME280;6919;52.344;14.518;2023-06-26T08:35:37;100590.34;;;28.73;68.01
13695;BME280;6919;52.344;14.518;2023-06-26T08:38:06;100585.13;;;28.82;62.02
13695;BME280;6919;52.344;14.518;2023-06-26T08:40:37;100585.66;;;28.84;64.07
13695;BME280;6919;52.344;14.518;2023-06-26T08:43:06;100574.63;;;28.79;68.27
13695;BME280;6919;52.344;14.518;2023-06-26T08:45:35;100580.75;;;29.21;68.89
13695;BME280;6919;52.344;14.518;2023-06-26T08:48:07;100576.91;;;29.17;60.51
13695;BME280;6919;52.344;14.518;2023-06-26T08:50:38;100580.09;;;28.59;62.28
13695;BME280;6919;52.344;14.518;2023-06-26T08:53:16;100569.56;;;28.46;57.96
13695;BME280;6919;52.344;14.518;2023-06-26T08:55:52;100572.56;;;28.39;58.45
13695;BME280;6919;52.344;14.518;2023-06-26T08:58:22;100576.63;;;28.17;62.55
13695;BME280;6919;52.344;14.518;2023-06-26T09:00:51;100563.00;;;28.67;62.11
13695;BME280;6919;52.344;14.518;2023-06-26T09:03:20;100567.72;;;28.91;62.11
13695;BME280;6919;52.344;14.518;2023-06-26T09:05:49;100566.78;;;28.36;58.15
13695;BME280;6919;52.344;14.518;2023-06-26T09:08:18;100561.31;;;28.56;63.32
13695;BME280;6919;52.344;14.518;2023-06-26T09:10:46;100560.84;;;29.29;58.74
13695;BME280;6919;52.344;14.518;2023-06-26T09:13:18;100556.16;;;29.19;57.75
13695;BME280;6919;52.344;14.518;2023-06-26T09:15:56;100555.66;;;28.11;60.58
13695;BME280;6919;52.344;14.518;2023-06-26T09:18:26;100555.13;;;28.19;62.53
13695;BME280;6919;52.344;14.518;2023-06-26T09:20:55;100552.59;;;28.12;58.25
13695;BME280;6919;52.344;14.518;2023-06-26T09:23:23;100554.00;;;28.15;57.71
13695;BME280;6919;52.344;14.518;2023-06-26T09:25:53;100550.59;;;27.92;60.85
13695;BME280;6919;52.344;14.518;2023-06-26T09:28:24;100549.00;;;28.06;58.63
13695;BME280;6919;52.344;14.518;2023-06-26T09:30:52;100536.09;;;28.22;58.42
13695;BME280;6919;52.344;14.518;2023-06-26T09:33:21;100530.84;;;28.11;58.71
13695;BME280;6919;52.344;14.518;2023-06-26T09:35:49;100527.88;;;28.37;67.43
13695;BME280;6919;52.344;14.518;2023-06-26T09:38:18;100538.53;;;28.03;60.63
13695;BME280;6919;52.344;14.518;2023-06-26T09:40:48;100533.88;;;27.57;62.09
13695;BME280;6919;52.344;14.518;2023-06-26T09:43:18;100522.00;;;27.62;64.85
13695;BME280;6919;52.344;14.518;2023-06-26T09:45:48;100536.81;;;27.92;61.66
13695;BME280;6919;52.344;14.518;2023-06-26T09:48:17;100537.00;;;28.43;65.45
13695;BME280;6919;52.344;14.518;2023-06-26T09:50:47;100540.38;;;28.95;60.23
13695;BME280;6919;52.344;14.518;2023-06-26T09:53:36;100537.09;;;29.23;57.50
13695;BME280;6919;52.344;14.518;2023-06-26T09:56:15;100529.88;;;28.92;60.24
13695;BME280;6919;52.344;14.518;2023-06-26T09:58:44;100531.28;;;28.89;57.44
13695;BME280;6919;52.344;14.518;2023-06-26T10:01:15;100527.41;;;29.00;55.18
13695;BME280;6919;52.344;14.518;2023-06-26T10:03:44;100526.88;;;29.03;53.39
13695;BME280;6919;52.344;14.518;2023-06-26T10:06:13;100520.50;;;28.63;53.61
13695;BME280;6919;52.344;14.518;2023-06-26T10:08:43;100517.75;;;28.88;54.67
13695;BME280;6919;52.344;14.518;2023-06-26T10:11:20;100517.22;;;29.21;54.82
13695;BME280;6919;52.344;14.518;2023-06-26T10:13:54;100511.41;;;28.77;53.26
13695;BME280;6919;52.344;14.518;2023-06-26T10:16:46;100499.28;;;29.08;53.59
13695;BME280;6919;52.344;14.518;2023-06-26T10:19:19;100502.72;;;29.79;51.73
13695;BME280;6919;52.344;14.518;2023-06-26T10:21:53;100510.91;;;30.04;52.03
13695;BME280;6919;52.344;14.518;2023-06-26T10:24:23;100504.19;;;30.25;51.29
13695;BME280;6919;52.344;14.518;2023-06-26T10:27:02;100489.16;;;30.41;51.70
13695;BME280;6919;52.344;14.518;2023-06-26T10:29:34;100483.41;;;30.71;51.35
13695;BME280;6919;52.344;14.518;2023-06-26T10:32:10;100488.94;;;31.05;48.82
13695;BME280;6919;52.344;14.518;2023-06-26T10:34:39;100485.25;;;30.86;46.35
13695;BME280;6919;52.344;14.518;2023-06-26T10:37:07;100485.38;;;30.99;46.28
13695;BME280;6919;52.344;14.518;2023-06-26T10:39:50;100472.75;;;30.88;47.27
13695;BME280;6919;52.344;14.518;2023-06-26T10:42:33;100474.56;;;31.03;47.63
13695;BME280;6919;52.344;14.518;2023-06-26T10:45:10;100467.41;;;31.25;48.51
13695;BME280;6919;52.344;14.518;2023-06-26T10:47:42;100478.19;;;30.98;44.80
13695;BME280;6919;52.344;14.518;2023-06-26T10:50:21;100475.84;;;30.43;44.47
13695;BME280;6919;52.344;14.518;2023-06-26T10:53:13;100469.88;;;30.64;48.56
13695;BME280;6919;52.344;14.518;2023-06-26T10:55:50;100472.44;;;31.18;47.82
13695;BME280;6919;52.344;14.518;2023-06-26T10:58:32;100469.16;;;31.16;45.50
13695;BME280;6919;52.344;14.518;2023-06-26T11:01:21;100469.56;;;31.33;46.37
13695;BME280;6919;52.344;14.518;2023-06-26T11:04:08;100463.31;;;31.70;43.18
13695;BME280;6919;52.344;14.518;2023-06-26T11:06:38;100454.81;;;31.09;42.12
13695;BME280;6919;52.344;14.518;2023-06-26T11:09:09;100454.91;;;30.99;45.14
13695;BME280;6919;52.344;14.518;2023-06-26T11:11:59;100448.34;;;30.56;45.48
13695;BME280;6919;52.344;14.518;2023-06-26T11:14:33;100450.44;;;30.69;43.65
13695;BME280;6919;52.344;14.518;2023-06-26T11:17:05;100447.38;;;31.05;45.06
13695;BME280;6919;52.344;14.518;2023-06-26T11:19:36;100434.72;;;31.27;43.15
13695;BME280;6919;52.344;14.518;2023-06-26T11:22:05;100445.75;;;31.56;44.10
13695;BME280;6919;52.344;14.518;2023-06-26T11:24:35;100442.50;;;31.72;40.94
13695;BME280;6919;52.344;14.518;2023-06-26T11:27:05;100443.69;;;32.27;43.62
13695;BME280;6919;52.344;14.518;2023-06-26T11:29:33;100436.53;;;31.37;42.43
13695;BME280;6919;52.344;14.518;2023-06-26T11:32:05;100436.94;;;30.29;42.92
13695;BME280;6919;52.344;14.518;2023-06-26T11:34:35;100430.06;;;30.94;46.39
13695;BME280;6919;52.344;14.518;2023-06-26T11:37:05;100423.41;;;31.47;42.60
13695;BME280;6919;52.344;14.518;2023-06-26T11:39:35;100427.41;;;32.02;43.93
13695;BME280;6919;52.344;14.518;2023-06-26T11:42:05;100420.19;;;32.19;41.57
13695;BME280;6919;52.344;14.518;2023-06-26T11:44:41;100417.34;;;31.87;41.81
13695;BME280;6919;52.344;14.518;2023-06-26T11:47:14;100418.94;;;31.46;41.31
13695;BME280;6919;52.344;14.518;2023-06-26T11:49:45;100418.94;;;31.70;39.79
13695;BME280;6919;52.344;14.518;2023-06-26T11:52:16;100400.31;;;31.28;41.29
13695;BME280;6919;52.344;14.518;2023-06-26T11:54:45;100403.13;;;31.00;42.81
13695;BME280;6919;52.344;14.518;2023-06-26T11:57:15;100400.28;;;31.33;42.42
13695;BME280;6919;52.344;14.518;2023-06-26T11:59:44;100402.78;;;31.77;42.52
13695;BME280;6919;52.344;14.518;2023-06-26T12:02:14;100415.25;;;31.98;40.23
13695;BME280;6919;52.344;14.518;2023-06-26T12:04:46;100401.22;;;32.26;39.58
13695;BME280;6919;52.344;14.518;2023-06-26T12:07:16;100402.94;;;32.22;38.33
13695;BME280;6919;52.344;14.518;2023-06-26T12:09:47;100402.19;;;31.80;39.08
13695;BME280;6919;52.344;14.518;2023-06-26T12:12:18;100394.56;;;32.09;40.33
13695;BME280;6919;52.344;14.518;2023-06-26T12:14:47;100391.59;;;32.56;38.07
13695;BME280;6919;52.344;14.518;2023-06-26T12:17:17;100384.13;;;32.19;37.57
13695;BME280;6919;52.344;14.518;2023-06-26T12:19:47;100375.09;;;32.27;38.32
13695;BME280;6919;52.344;14.518;2023-06-26T12:22:18;100368.53;;;31.21;37.92
13695;BME280;6919;52.344;14.518;2023-06-26T12:24:48;100368.00;;;31.84;37.98
13695;BME280;6919;52.344;14.518;2023-06-26T12:27:19;100372.44;;;32.22;36.89
13695;BME280;6919;52.344;14.518;2023-06-26T12:29:51;100364.19;;;32.36;37.29
13695;BME280;6919;52.344;14.518;2023-06-26T12:32:25;100357.75;;;31.85;37.72
13695;BME280;6919;52.344;14.518;2023-06-26T12:34:58;100346.59;;;31.48;35.77
13695;BME280;6919;52.344;14.518;2023-06-26T12:37:26;100357.50;;;32.18;37.74
13695;BME280;6919;52.344;14.518;2023-06-26T12:39:59;100357.38;;;32.60;35.66
13695;BME280;6919;52.344;14.518;2023-06-26T12:42:33;100351.88;;;32.87;37.57
13695;BME280;6919;52.344;14.518;2023-06-26T12:45:11;100357.88;;;32.62;35.94
13695;BME280;6919;52.344;14.518;2023-06-26T12:48:08;100347.25;;;32.00;36.25
13695;BME280;6919;52.344;14.518;2023-06-26T12:50:45;100338.06;;;32.82;35.79
13695;BME280;6919;52.344;14.518;2023-06-26T12:53:15;100331.72;;;33.50;36.11
13695;BME280;6919;52.344;14.518;2023-06-26T12:55:47;100336.19;;;33.73;35.16
13695;BME280;6919;52.344;14.518;2023-06-26T12:58:16;100330.41;;;33.83;35.35
13695;BME280;6919;52.344;14.518;2023-06-26T13:00:44;100328.13;;;34.95;34.34
13695;BME280;6919;52.344;14.518;2023-06-26T13:03:13;100319.66;;;35.64;31.54